createdAt,value
2022-12-04T00:02:12.133Z,81.67
2022-12-04T00:04:38.804Z,81.22
2022-12-04T00:07:05.507Z,81.10
2022-12-04T00:09:32.095Z,81.71
2022-12-04T00:11:58.794Z,81.68
2022-12-04T00:14:25.468Z,81.51
2022-12-04T00:16:52.279Z,81.24
2022-12-04T00:19:19.201Z,81.40
2022-12-04T00:21:46.061Z,80.89
2022-12-04T00:24:12.831Z,81.02
2022-12-04T00:26:39.582Z,81.55
2022-12-04T00:29:06.370Z,81.48
2022-12-04T00:31:33.567Z,81.10
2022-12-04T00:34:02.241Z,81.44
2022-12-04T00:36:29.604Z,81.21
2022-12-04T00:38:58.337Z,81.45
2022-12-04T00:41:26.194Z,81.27
2022-12-04T00:43:53.175Z,81.48
2022-12-04T00:46:20.318Z,81.39
2022-12-04T00:48:47.878Z,81.12
2022-12-04T00:51:18.208Z,81.30
2022-12-04T00:53:45.615Z,80.83
2022-12-04T00:56:19.979Z,81.45
2022-12-04T00:58:47.278Z,81.29
2022-12-04T01:01:17.621Z,81.07
2022-12-04T01:03:44.953Z,81.31
2022-12-04T01:06:20.337Z,81.35
2022-12-04T01:08:47.866Z,81.22
2022-12-04T01:11:14.796Z,80.93
2022-12-04T01:13:41.426Z,81.38
2022-12-04T01:16:08.222Z,80.51
2022-12-04T01:18:34.986Z,80.84
2022-12-04T01:21:01.669Z,80.85
2022-12-04T01:23:28.305Z,81.25
2022-12-04T01:25:58.074Z,81.06
2022-12-04T01:28:25.853Z,81.11
2022-12-04T01:31:08.360Z,80.82
2022-12-04T01:33:36.489Z,80.79
2022-12-04T01:36:05.807Z,80.74
2022-12-04T01:38:34.121Z,80.96
2022-12-04T01:41:00.912Z,80.94
2022-12-04T01:43:31.016Z,81.20
2022-12-04T01:45:59.726Z,81.31
2022-12-04T01:48:31.812Z,81.54
2022-12-04T01:51:07.064Z,80.75
2022-12-04T01:53:37.324Z,80.72
2022-12-04T01:56:04.888Z,80.97
2022-12-04T01:58:35.013Z,80.98
2022-12-04T02:01:08.805Z,81.64
2022-12-04T02:03:37.157Z,81.35
2022-12-04T02:06:04.507Z,81.61
2022-12-04T02:08:32.426Z,81.26
2022-12-04T02:11:25.966Z,81.79
2022-12-04T02:13:57.078Z,81.39
2022-12-04T02:16:49.104Z,81.40
2022-12-04T02:19:27.719Z,81.50
2022-12-04T02:21:58.622Z,81.53
2022-12-04T02:24:52.889Z,81.60
2022-12-04T02:27:51.749Z,81.31
2022-12-04T02:30:18.567Z,81.72
2022-12-04T02:32:51.282Z,81.52
2022-12-04T02:35:23.403Z,81.43
2022-12-04T02:37:59.140Z,81.92
2022-12-04T02:40:56.993Z,81.48
2022-12-04T02:43:33.296Z,81.09
2022-12-04T02:46:06.877Z,81.07
2022-12-04T02:48:37.186Z,81.22
2022-12-04T02:51:08.254Z,80.76
2022-12-04T02:53:40.280Z,81.20
2022-12-04T02:56:12.147Z,81.47
2022-12-04T02:58:44.869Z,81.38
2022-12-04T03:01:21.721Z,81.46
2022-12-04T03:04:16.035Z,81.75
2022-12-04T03:06:45.658Z,81.58
2022-12-04T03:09:20.189Z,81.18
2022-12-04T03:11:52.482Z,81.56
2022-12-04T03:14:29.091Z,81.58
2022-12-04T03:17:03.855Z,81.71
2022-12-04T03:19:41.343Z,81.08
2022-12-04T03:22:14.270Z,81.12
2022-12-04T03:24:45.616Z,80.75
2022-12-04T03:27:18.198Z,81.38
2022-12-04T03:30:09.970Z,81.03
2022-12-04T03:32:44.284Z,81.18
2022-12-04T03:35:23.627Z,81.01
2022-12-04T03:38:04.755Z,81.19
2022-12-04T03:40:37.288Z,81.76
2022-12-04T03:43:10.329Z,80.79
2022-12-04T03:45:46.014Z,81.09
2022-12-04T03:48:24.129Z,81.28
2022-12-04T03:51:17.888Z,80.34
2022-12-04T03:53:51.410Z,80.30
2022-12-04T03:56:23.092Z,80.88
2022-12-04T03:58:54.638Z,80.67
2022-12-04T04:01:27.530Z,80.52
2022-12-04T04:03:57.663Z,80.93
2022-12-04T04:06:30.786Z,81.06
2022-12-04T04:09:05.035Z,81.42
2022-12-04T04:11:41.729Z,80.97
2022-12-04T04:14:33.265Z,80.89
2022-12-04T04:17:25.279Z,81.02
2022-12-04T04:20:36.438Z,80.99
2022-12-04T04:23:25.170Z,80.66
2022-12-04T04:25:53.523Z,80.57
2022-12-04T04:28:39.227Z,80.18
2022-12-04T04:31:21.638Z,80.74
2022-12-04T04:34:06.327Z,81.12
2022-12-04T04:36:38.767Z,80.87
2022-12-04T04:39:28.410Z,80.94
2022-12-04T04:42:22.618Z,80.89
2022-12-04T04:44:55.112Z,80.83
2022-12-04T04:47:34.274Z,81.05
2022-12-04T04:50:05.098Z,80.90
2022-12-04T04:52:32.959Z,81.36
2022-12-04T04:55:01.349Z,80.62
2022-12-04T04:57:31.110Z,81.31
2022-12-04T04:59:58.084Z,80.37
2022-12-04T05:02:27.203Z,81.07
2022-12-04T05:04:55.272Z,81.20
2022-12-04T05:07:21.976Z,81.21
2022-12-04T05:09:48.648Z,80.69
2022-12-04T05:12:15.523Z,80.94
2022-12-04T05:14:42.183Z,81.19
2022-12-04T05:17:12.524Z,81.10
2022-12-04T05:19:56.393Z,80.82
2022-12-04T05:22:35.116Z,80.76
2022-12-04T05:25:02.954Z,80.75
2022-12-04T05:27:31.115Z,80.28
2022-12-04T05:29:58.934Z,80.74
2022-12-04T05:32:28.611Z,80.19
2022-12-04T05:34:56.853Z,80.29
2022-12-04T05:37:24.713Z,80.53
2022-12-04T05:39:51.506Z,80.59
2022-12-04T05:42:18.303Z,80.21
2022-12-04T05:44:44.884Z,80.44
2022-12-04T05:47:11.823Z,79.98
2022-12-04T05:49:38.522Z,80.16
2022-12-04T05:52:06.164Z,80.31
2022-12-04T05:54:32.865Z,80.64
2022-12-04T05:56:59.647Z,79.98
2022-12-04T05:59:26.320Z,80.09
2022-12-04T06:01:53.138Z,80.62
2022-12-04T06:04:19.975Z,80.29
2022-12-04T06:06:46.600Z,80.67
2022-12-04T06:09:13.606Z,81.01
2022-12-04T06:11:41.495Z,81.16
2022-12-04T06:14:12.587Z,80.78
2022-12-04T06:16:45.478Z,80.77
2022-12-04T06:19:16.492Z,80.88
2022-12-04T06:21:45.526Z,80.95
2022-12-04T06:24:24.835Z,80.75
2022-12-04T06:27:26.305Z,80.51
2022-12-04T06:29:41.983Z,80.92
2022-12-04T06:32:08.912Z,80.50
2022-12-04T06:34:37.013Z,80.23
2022-12-04T06:37:03.849Z,80.22
2022-12-04T06:39:30.642Z,80.45
2022-12-04T06:41:57.263Z,81.04
2022-12-04T06:44:23.840Z,80.23
2022-12-04T06:46:50.719Z,79.84
2022-12-04T06:49:17.346Z,80.59
2022-12-04T06:51:43.978Z,80.57
2022-12-04T06:54:10.887Z,80.69
2022-12-04T06:56:37.678Z,80.99
2022-12-04T06:59:05.063Z,80.62
2022-12-04T07:01:33.638Z,80.31
2022-12-04T07:04:01.283Z,80.37
2022-12-04T07:06:34.927Z,80.19
2022-12-04T07:09:05.966Z,80.32
2022-12-04T07:11:33.507Z,80.22
2022-12-04T07:14:00.183Z,80.20
2022-12-04T07:16:28.973Z,79.96
2022-12-04T07:18:59.000Z,80.24
2022-12-04T07:21:28.584Z,80.03
2022-12-04T07:23:58.122Z,80.71
2022-12-04T07:26:26.596Z,80.52
2022-12-04T07:28:57.062Z,80.79
2022-12-04T07:31:25.348Z,80.43
2022-12-04T07:33:53.939Z,80.26
2022-12-04T07:36:22.728Z,80.09
2022-12-04T07:38:50.370Z,80.54
2022-12-04T07:41:18.343Z,80.81
2022-12-04T07:43:45.860Z,80.64
2022-12-04T07:46:16.403Z,80.42
2022-12-04T07:48:43.306Z,80.91
2022-12-04T07:51:20.344Z,81.02
2022-12-04T07:53:48.063Z,80.44
2022-12-04T07:56:15.655Z,80.74
2022-12-04T07:58:43.304Z,80.63
2022-12-04T08:01:14.753Z,80.99
2022-12-04T08:03:47.650Z,80.15
2022-12-04T08:06:17.426Z,80.59
2022-12-04T08:08:44.230Z,80.71
2022-12-04T08:11:14.364Z,80.10
2022-12-04T08:13:41.106Z,80.65
2022-12-04T08:16:10.067Z,81.00
2022-12-04T08:18:36.839Z,80.89
2022-12-04T08:21:06.010Z,80.86
2022-12-04T08:23:33.374Z,80.65
2022-12-04T08:26:01.113Z,80.53
2022-12-04T08:28:28.943Z,80.57
2022-12-04T08:31:01.964Z,79.80
2022-12-04T08:33:29.075Z,79.46
2022-12-04T08:35:55.962Z,79.74
2022-12-04T08:38:23.199Z,79.38
2022-12-04T08:40:50.137Z,80.08
2022-12-04T08:43:16.876Z,79.52
2022-12-04T08:45:43.649Z,79.71
2022-12-04T08:48:10.430Z,79.27
2022-12-04T08:50:37.168Z,79.45
2022-12-04T08:53:03.866Z,79.74
2022-12-04T08:55:32.632Z,79.06
2022-12-04T08:57:59.637Z,79.05
2022-12-04T09:00:27.234Z,78.70
2022-12-04T09:02:53.896Z,78.84
2022-12-04T09:05:20.541Z,78.16
2022-12-04T09:07:47.204Z,78.37
2022-12-04T09:10:14.029Z,79.54
2022-12-04T09:12:40.812Z,79.48
2022-12-04T09:15:08.157Z,79.63
2022-12-04T09:17:36.367Z,79.67
2022-12-04T09:20:05.481Z,79.86
2022-12-04T09:23:01.774Z,79.93
2022-12-04T09:25:21.160Z,79.35
2022-12-04T09:27:47.798Z,79.23
2022-12-04T09:30:14.810Z,78.78
2022-12-04T09:32:42.099Z,78.69
2022-12-04T09:35:13.100Z,79.14
2022-12-04T09:37:39.773Z,78.70
2022-12-04T09:40:07.991Z,78.92
2022-12-04T09:42:47.638Z,78.61
2022-12-04T09:45:42.986Z,78.81
2022-12-04T09:48:12.153Z,78.39
2022-12-04T09:50:44.754Z,78.26
2022-12-04T09:53:18.443Z,77.80
2022-12-04T09:56:12.045Z,78.19
2022-12-04T09:58:47.378Z,78.34
2022-12-04T10:01:21.626Z,78.15
2022-12-04T10:03:48.847Z,77.88
2022-12-04T10:06:29.512Z,78.34
2022-12-04T10:09:01.265Z,78.00
2022-12-04T10:11:42.865Z,77.44
2022-12-04T10:14:18.395Z,77.29
2022-12-04T10:17:41.930Z,77.65
2022-12-04T10:20:26.650Z,77.43
2022-12-04T10:23:17.814Z,77.50
2022-12-04T10:25:44.585Z,77.31
2022-12-04T10:28:27.805Z,76.92
2022-12-04T10:30:59.462Z,76.89
2022-12-04T10:33:43.938Z,76.77
2022-12-04T10:36:15.206Z,77.27
2022-12-04T10:38:53.904Z,77.16
2022-12-04T10:41:35.042Z,77.46
2022-12-04T10:44:01.944Z,78.07
2022-12-04T10:46:32.834Z,77.81
2022-12-04T10:49:06.697Z,77.84
2022-12-04T10:51:40.594Z,77.32
2022-12-04T10:54:34.853Z,77.72
2022-12-04T10:57:05.535Z,79.02
2022-12-04T10:59:32.786Z,78.53
2022-12-04T11:02:12.160Z,78.82
2022-12-04T11:04:40.352Z,78.66
2022-12-04T11:07:18.788Z,79.06
2022-12-04T11:10:05.477Z,79.01
2022-12-04T11:12:32.342Z,78.49
2022-12-04T11:15:07.927Z,78.53
2022-12-04T11:17:34.612Z,79.10
2022-12-04T11:20:27.750Z,78.45
2022-12-04T11:22:59.813Z,78.58
2022-12-04T11:25:30.905Z,78.70
2022-12-04T11:28:02.207Z,79.00
2022-12-04T11:30:35.178Z,79.62
2022-12-04T11:33:03.329Z,79.01
2022-12-04T11:35:31.603Z,79.28
2022-12-04T11:38:13.223Z,79.05
2022-12-04T11:40:45.628Z,78.57
2022-12-04T11:43:17.893Z,78.58
2022-12-04T11:46:02.933Z,79.30
2022-12-04T11:48:31.785Z,79.56
2022-12-04T11:51:51.803Z,78.71
2022-12-04T11:54:45.136Z,78.21
2022-12-04T11:57:20.405Z,78.31
2022-12-04T12:00:11.923Z,77.96
2022-12-04T12:02:54.624Z,78.35
2022-12-04T12:05:41.827Z,78.13
2022-12-04T12:08:09.140Z,78.23
2022-12-04T12:10:48.111Z,78.01
2022-12-04T12:13:29.261Z,78.07
2022-12-04T12:16:26.524Z,77.97
2022-12-04T12:19:02.391Z,77.66
2022-12-04T12:21:48.634Z,78.44
2022-12-04T12:24:33.445Z,78.33
2022-12-04T12:27:30.388Z,78.09
2022-12-04T12:30:17.654Z,77.83
2022-12-04T12:33:02.825Z,77.77
2022-12-04T12:35:36.011Z,78.40
2022-12-04T12:38:10.050Z,78.15
2022-12-04T12:40:45.874Z,78.53
2022-12-04T12:43:36.905Z,79.07
2022-12-04T12:46:14.393Z,78.33
2022-12-04T12:48:56.524Z,78.04
2022-12-04T12:51:47.224Z,78.48
2022-12-04T12:54:51.223Z,78.26
2022-12-04T12:57:29.668Z,77.52
2022-12-04T13:00:00.682Z,78.12
2022-12-04T13:02:38.330Z,78.07
2022-12-04T13:05:08.956Z,78.84
2022-12-04T13:07:42.661Z,79.00
2022-12-04T13:10:21.343Z,78.54
2022-12-04T13:12:54.667Z,78.80
2022-12-04T13:15:26.825Z,78.59
2022-12-04T13:17:56.418Z,78.75
2022-12-04T13:20:31.963Z,78.17
2022-12-04T13:23:18.179Z,78.67
2022-12-04T13:26:09.609Z,78.41
2022-12-04T13:28:57.105Z,78.53
2022-12-04T13:31:42.633Z,78.38
2022-12-04T13:34:39.114Z,78.88
2022-12-04T13:37:54.298Z,79.08
2022-12-04T13:40:29.173Z,78.68
2022-12-04T13:43:16.473Z,78.11
2022-12-04T13:45:46.415Z,78.13
2022-12-04T13:48:13.301Z,79.04
2022-12-04T13:50:40.940Z,79.10
2022-12-04T13:53:32.288Z,79.54
2022-12-04T13:56:04.460Z,80.14
2022-12-04T13:58:35.696Z,79.42
2022-12-04T14:01:13.323Z,79.25
2022-12-04T14:03:48.894Z,79.17
2022-12-04T14:06:50.107Z,79.94
2022-12-04T14:09:25.162Z,79.60
2022-12-04T14:11:58.904Z,80.14
2022-12-04T14:14:31.731Z,80.58
2022-12-04T14:16:59.957Z,80.19
2022-12-04T14:19:40.954Z,79.36
2022-12-04T14:22:25.667Z,79.95
2022-12-04T14:24:52.631Z,79.90
2022-12-04T14:27:34.569Z,80.39
2022-12-04T14:30:02.061Z,80.47
2022-12-04T14:32:33.692Z,80.32
2022-12-04T14:35:01.245Z,80.15
2022-12-04T14:37:36.442Z,79.70
2022-12-04T14:40:07.320Z,79.61
2022-12-04T14:42:39.283Z,80.02
2022-12-04T14:46:00.470Z,79.65
2022-12-04T14:48:38.606Z,79.80
2022-12-04T14:51:14.734Z,79.55
2022-12-04T14:54:03.494Z,80.40
2022-12-04T14:56:33.048Z,80.45
2022-12-04T14:59:06.232Z,80.45
2022-12-04T15:01:38.927Z,81.03
2022-12-04T15:04:16.923Z,80.61
2022-12-04T15:06:49.065Z,81.24
2022-12-04T15:09:40.111Z,81.17
2022-12-04T15:12:34.880Z,80.49
2022-12-04T15:15:09.847Z,80.49
2022-12-04T15:17:36.464Z,79.96
2022-12-04T15:20:18.693Z,80.74
2022-12-04T15:43:17.103Z,81.92
2022-12-04T15:45:44.607Z,81.67
2022-12-04T15:48:11.707Z,81.92
2022-12-04T15:50:38.564Z,81.49
2022-12-04T15:53:05.992Z,81.70
2022-12-04T15:55:38.284Z,81.16
2022-12-04T15:58:09.644Z,81.42
2022-12-04T16:00:39.623Z,80.96
2022-12-04T16:03:23.480Z,81.60
2022-12-04T16:06:01.420Z,80.84
2022-12-04T16:08:33.359Z,81.17
2022-12-04T16:11:39.080Z,80.99
2022-12-04T16:14:15.702Z,81.11
2022-12-04T16:16:51.578Z,80.78
2022-12-04T16:19:36.949Z,80.66
2022-12-04T16:22:20.273Z,80.82
2022-12-04T16:24:51.285Z,80.71
2022-12-04T16:27:24.892Z,80.35
2022-12-04T16:29:53.888Z,80.23
2022-12-04T16:32:23.733Z,80.88
2022-12-04T16:34:50.797Z,80.77
2022-12-04T16:37:22.185Z,80.67
2022-12-04T16:39:49.892Z,80.87
2022-12-04T16:42:29.691Z,80.76
2022-12-04T16:45:32.936Z,80.73
2022-12-04T16:48:00.391Z,81.23
2022-12-04T16:50:27.666Z,81.96
2022-12-04T16:52:54.986Z,81.73
2022-12-04T16:55:43.902Z,82.41
2022-12-04T16:58:10.724Z,81.90
2022-12-04T17:00:39.341Z,82.19
2022-12-04T17:03:06.335Z,82.01
2022-12-04T17:05:35.861Z,82.63
2022-12-04T17:08:02.785Z,82.74
2022-12-04T17:10:30.046Z,82.34
2022-12-04T17:12:56.691Z,81.69
2022-12-04T17:15:24.310Z,81.61
2022-12-04T17:17:51.667Z,81.55
2022-12-04T17:20:20.993Z,81.33
2022-12-04T17:22:48.813Z,81.01
2022-12-04T17:25:16.574Z,81.57
2022-12-04T17:27:43.650Z,81.88
2022-12-04T17:30:13.026Z,81.58
2022-12-04T17:32:39.978Z,81.39
2022-12-04T17:35:09.049Z,80.52
2022-12-04T17:37:36.430Z,80.70
2022-12-04T17:40:03.936Z,81.23
2022-12-04T17:42:32.247Z,80.27
2022-12-04T17:44:59.126Z,80.40
2022-12-04T17:47:26.133Z,80.80
2022-12-04T17:49:52.810Z,80.59
2022-12-04T17:52:22.321Z,80.20
2022-12-04T17:54:50.066Z,79.24
2022-12-04T17:57:17.310Z,80.04
2022-12-04T17:59:45.026Z,80.00
2022-12-04T18:02:12.732Z,79.63
2022-12-04T18:04:42.709Z,79.39
2022-12-04T18:07:09.727Z,79.04
2022-12-04T18:09:38.056Z,79.36
2022-12-04T18:12:04.996Z,79.33
2022-12-04T18:14:32.503Z,79.21
2022-12-04T18:16:59.281Z,78.46
2022-12-04T18:19:28.081Z,78.17
2022-12-04T18:21:56.156Z,77.85
2022-12-04T18:24:24.337Z,77.98
2022-12-04T18:26:51.603Z,78.44
2022-12-04T18:29:21.903Z,78.06
2022-12-04T18:31:48.809Z,78.13
2022-12-04T18:34:16.008Z,78.46
2022-12-04T18:36:45.358Z,77.45
2022-12-04T18:39:17.394Z,77.00
2022-12-04T18:41:45.117Z,77.16
2022-12-04T18:44:12.550Z,76.77
2022-12-04T18:46:39.886Z,76.84
2022-12-04T18:49:09.212Z,77.25
2022-12-04T18:51:42.963Z,77.28
2022-12-04T18:54:15.893Z,77.07
2022-12-04T18:56:43.507Z,76.77
2022-12-04T18:59:13.758Z,77.46
2022-12-04T19:01:41.696Z,77.00
2022-12-04T19:04:11.016Z,75.96
2022-12-04T19:06:43.682Z,77.16
2022-12-04T19:09:13.546Z,76.26
2022-12-04T19:11:41.241Z,76.67
2022-12-04T19:14:17.533Z,75.75
2022-12-04T19:16:45.450Z,75.88
2022-12-04T19:19:14.145Z,75.27
2022-12-04T19:21:42.362Z,74.82
2022-12-04T19:24:11.970Z,74.83
2022-12-04T19:26:40.078Z,74.87
2022-12-04T19:29:15.040Z,74.70
2022-12-04T19:31:42.381Z,74.68
2022-12-04T19:34:09.810Z,74.14
2022-12-04T19:36:37.271Z,74.33
2022-12-04T19:39:07.521Z,74.46
2022-12-04T19:41:35.447Z,73.71
2022-12-04T19:44:25.965Z,74.07
2022-12-04T19:46:51.278Z,73.77
2022-12-04T19:49:18.173Z,73.62
2022-12-04T19:51:45.370Z,73.76
2022-12-04T19:54:14.002Z,73.14
2022-12-04T19:56:42.847Z,73.41
2022-12-04T19:59:10.354Z,73.60
2022-12-04T20:01:37.218Z,73.08
2022-12-04T20:04:06.231Z,73.34
2022-12-04T20:06:47.617Z,73.55
2022-12-04T20:09:18.873Z,74.05
2022-12-04T20:11:47.559Z,73.30
2022-12-04T20:14:14.402Z,73.86
2022-12-04T20:16:41.989Z,73.44
2022-12-04T20:19:14.209Z,73.34
2022-12-04T20:21:41.286Z,72.88
2022-12-04T20:24:12.370Z,73.00
2022-12-04T20:26:39.389Z,72.96
2022-12-04T20:29:08.633Z,73.37
2022-12-04T20:31:38.200Z,72.77
2022-12-04T20:34:07.524Z,73.28
2022-12-04T20:36:37.569Z,72.60
2022-12-04T20:39:05.353Z,73.21
2022-12-04T20:41:33.245Z,72.88
2022-12-04T20:44:04.742Z,73.71
2022-12-04T20:46:34.910Z,74.18
2022-12-04T20:49:05.726Z,73.65
2022-12-04T20:51:38.497Z,73.07
2022-12-04T20:54:06.477Z,72.99
2022-12-04T20:56:35.611Z,72.96
2022-12-04T20:59:05.683Z,73.37
2022-12-04T21:01:33.423Z,72.63
2022-12-04T21:04:01.383Z,72.87
2022-12-04T21:06:37.050Z,73.16
2022-12-04T21:09:12.217Z,73.64
2022-12-04T21:11:41.736Z,73.01
2022-12-04T21:14:33.279Z,73.14
2022-12-04T21:17:00.391Z,73.28
2022-12-04T21:19:27.212Z,73.76
2022-12-04T21:21:54.207Z,72.97
2022-12-04T21:24:22.757Z,72.53
2022-12-04T21:26:49.504Z,72.90
2022-12-04T21:29:16.211Z,72.75
2022-12-04T21:31:43.149Z,72.61
2022-12-04T21:34:13.337Z,72.25
2022-12-04T21:36:40.202Z,73.35
2022-12-04T21:39:07.815Z,72.96
2022-12-04T21:41:53.929Z,72.84
2022-12-04T21:44:21.922Z,72.17
2022-12-04T21:46:49.159Z,72.58
2022-12-04T21:49:17.135Z,72.64
2022-12-04T21:51:59.758Z,72.43
2022-12-04T21:54:29.836Z,72.77
2022-12-04T21:56:57.494Z,72.74
2022-12-04T21:59:25.362Z,73.24
2022-12-04T22:01:53.031Z,72.46
2022-12-04T22:04:20.668Z,72.79
2022-12-04T22:06:47.365Z,72.32
2022-12-04T22:09:14.299Z,71.84
2022-12-04T22:11:41.822Z,72.20
2022-12-04T22:14:09.837Z,73.09
2022-12-04T22:16:41.840Z,73.23
2022-12-04T22:19:10.390Z,72.73
2022-12-04T22:21:37.477Z,72.57
2022-12-04T22:24:04.749Z,73.77
2022-12-04T22:26:32.144Z,73.35
2022-12-04T22:28:59.263Z,73.21
2022-12-04T22:31:28.866Z,73.02
2022-12-04T22:33:58.099Z,73.22
2022-12-04T22:36:27.667Z,72.32
2022-12-04T22:39:10.868Z,72.98
2022-12-04T22:41:39.135Z,72.90
2022-12-04T22:44:06.058Z,72.39
2022-12-04T22:46:33.738Z,72.79
2022-12-04T22:49:00.628Z,72.66
2022-12-04T22:51:27.771Z,72.87
2022-12-04T22:53:57.926Z,72.76
2022-12-04T22:56:27.450Z,72.84
2022-12-04T22:58:55.206Z,72.73
2022-12-04T23:01:27.741Z,72.04
2022-12-04T23:03:55.539Z,72.48
2022-12-04T23:06:24.759Z,72.19
2022-12-04T23:08:56.358Z,72.69
2022-12-04T23:11:24.383Z,71.98
2022-12-04T23:13:53.407Z,71.53
2022-12-04T23:16:21.947Z,71.75
2022-12-04T23:18:49.657Z,71.50
2022-12-04T23:21:17.855Z,71.69
2022-12-04T23:23:46.516Z,71.90
2022-12-04T23:26:15.955Z,71.39
2022-12-04T23:28:42.745Z,72.46
2022-12-04T23:31:10.958Z,72.43
2022-12-04T23:33:39.058Z,70.98
2022-12-04T23:36:07.690Z,70.79
2022-12-04T23:38:36.060Z,71.17
2022-12-04T23:41:06.414Z,72.36
2022-12-04T23:43:33.570Z,70.86
2022-12-04T23:46:01.236Z,71.15
2022-12-04T23:48:30.515Z,71.05
2022-12-04T23:50:57.863Z,71.23
2022-12-04T23:53:25.154Z,70.52
2022-12-04T23:55:57.067Z,71.04
2022-12-04T23:58:24.108Z,71.32
